Brocket AGDM, Alberta

6:13 PM MDT on August 27, 2015 (GMT -0600)
Pincher Creek | | Change Station
CLOSE
Current Station
Airport
Location: Pincher Creek Airport,
Elevation: 3904 ft
Nearby Weather Stations

Elev 3904 ft 49.52 °N, 114.00 °W | Updated 13 minutes ago

Haze
Haze
81 °F
Feels Like 81 °F
N
18
Wind Variable Wind from West

Today
High -- | Low -- °F
--% Chance of Precip.
Yesterday
High -- | Low -- °F
Precip. -- in
6:43 AM 8:29 PM
Waxing Gibbous, 95% visible
Pressure 29.92 in
Visibility 6.0 miles
Clouds Clear
Dew Point 39 °F
Humidity 23%
Rainfall 0.00 in
Snow Depth Not available.
UV 0 out of 12
Pollen Not available.
Air Quality Not available.
Flu Activity Not available.
METAR CZPC 280000Z AUTO 27016KT 6SM HZ CLR 27/04 A2996 RMK SLP130 DENSITY ALT 6000FT
Pressure 29.92 in
Visibility 6.0 miles
Clouds Clear
Dew Point 39 °F
Humidity 23%
Rainfall 0.00 in
Snow Depth Not available.
UV 0 out of 12
Pollen Not available.
Air Quality Not available.
Flu Activity Not available.
METAR CZPC 280000Z AUTO 27016KT 6SM HZ CLR 27/04 A2996 RMK SLP130 DENSITY ALT 6000FT

10-Day Weather Forecast

×

Almanac

Astronomy

Aug. 27, 2015 Rise Set
Actual Time
Civil Twilight
Nautical Twilight
Astronomical Twilight
Moon
Length of Visible Light
Length of Day
Tomorrow will be .
, % of the Moon is Illuminated

Today's Extremes

Country Highs Country Lows

Community

WunderPhotos

Upload Photos

1,850,272 photos uploaded!

WunderBlogs® & News

Nearby

Air Quality

  Air Quality AQ Index Pollutant
Not available.

Snow Depth

Station Depth Elevation

Earthquake Activity

City Distance Mag. Time & Date
Minimum magnitude displayed is 2.5.

Coastal Water Temperatures

Place Temperature

Stations

Nearby Weather Stations

Station Location Temp. Windchill Dew Point Humidity Wind Precip. Elev Updated Type